Time;durP1;ratioP1;P1;durP2;ratioP2;P2;SDS_P1;SDS_P2;PMS_P1;PMS_P2;Temp;Humidity;BMP_temperature;BMP_pressure;BME280_temperature;BME280_humidity;BME280_pressure;Samples;Min_cycle;Max_cycle;Signal;HPM_P1;HPM_P2
2022/06/25 00:01:43;;;;;;;8.05;4.90;;;;;;;16.45;94.43;100837.28;6308116;22;20004;-82
2022/06/25 00:05:27;;;;;;;7.55;5.13;;;;;;;15.92;94.60;100762.00;6308362;22;20017;-80
2022/06/25 00:06:53;;;;;;;9.75;5.68;;;;;;;16.42;94.58;100837.53;6308064;22;20007;-81
2022/06/25 00:09:18;;;;;;;9.48;5.30;;;;;;;16.39;94.17;100835.22;6308128;22;20471;-79
2022/06/25 00:14:28;;;;;;;8.02;5.13;;;;;;;16.37;93.97;100837.97;6307965;22;20072;-80
2022/06/25 00:16:53;;;;;;;10.35;5.50;;;;;;;16.04;93.93;100784.41;6307555;22;20008;-79
2022/06/25 00:19:18;;;;;;;9.60;5.00;;;;;;;16.16;93.89;100813.78;6255230;22;19999;-80
2022/06/25 00:21:44;;;;;;;9.23;5.18;;;;;;;16.33;94.01;100839.19;6280582;22;20002;-79
2022/06/25 00:24:09;;;;;;;9.10;4.65;;;;;;;16.35;93.80;100847.69;6307580;22;20007;-80
2022/06/25 00:26:34;;;;;;;9.50;4.95;;;;;;;16.35;93.64;100840.69;6307928;22;19999;-80
2022/06/25 00:29:00;;;;;;;9.13;4.28;;;;;;;16.36;93.33;100846.72;6308163;22;20083;-80
2022/06/25 00:31:25;;;;;;;8.77;4.50;;;;;;;16.37;92.81;100837.13;6308094;22;20014;-79
2022/06/25 00:33:50;;;;;;;8.88;4.35;;;;;;;15.90;92.96;100763.91;6308057;22;20003;-80
2022/06/25 00:36:16;;;;;;;7.60;4.80;;;;;;;16.29;93.38;100837.78;6307147;22;20310;-81
2022/06/25 00:38:41;;;;;;;10.82;5.10;;;;;;;16.32;93.31;100847.94;6307640;22;20003;-81
2022/06/25 00:41:06;;;;;;;9.98;5.07;;;;;;;16.30;92.91;100845.47;6307963;22;20082;-80
2022/06/25 00:43:37;;;;;;;6.15;4.15;;;;;;;16.26;93.39;100849.31;6307522;22;20365;-80
2022/06/25 00:46:02;;;;;;;9.30;4.60;;;;;;;16.27;93.48;100855.34;6307254;22;20428;-80
2022/06/25 00:48:28;;;;;;;10.05;4.78;;;;;;;16.26;93.37;100840.69;6307867;22;19999;-79
2022/06/25 00:50:58;;;;;;;9.55;5.22;;;;;;;16.24;93.62;100848.63;6307852;22;20397;-80
2022/06/25 00:53:30;;;;;;;6.72;4.78;;;;;;;16.23;93.67;100848.75;6307373;22;20003;-79
2022/06/25 00:55:57;;;;;;;7.32;4.53;;;;;;;16.17;94.36;100847.50;6307849;22;20007;-79
2022/06/25 00:58:26;;;;;;;8.40;5.25;;;;;;;16.18;94.17;100843.13;6307531;22;20003;-79
2022/06/25 01:00:54;;;;;;;9.85;5.10;;;;;;;16.16;93.81;100851.06;6307388;22;20011;-80
2022/06/25 01:03:19;;;;;;;9.40;5.00;;;;;;;16.17;94.22;100867.53;6307747;22;20325;-78
2022/06/25 01:05:45;;;;;;;8.40;5.47;;;;;;;16.14;94.65;100865.19;6280215;22;20014;-80
2022/06/25 01:08:12;;;;;;;9.15;4.93;;;;;;;16.07;94.37;100857.06;6307397;22;20038;-78
2022/06/25 01:10:38;;;;;;;6.97;5.03;;;;;;;16.14;94.30;100863.41;6228159;22;20011;-80
2022/06/25 01:13:03;;;;;;;10.18;4.70;;;;;;;16.15;94.20;100870.25;6280768;22;20003;-81
2022/06/25 01:15:29;;;;;;;8.73;5.32;;;;;;;16.10;93.64;100880.25;6279545;22;20341;-80
2022/06/25 01:17:54;;;;;;;8.23;4.95;;;;;;;16.09;94.16;100875.97;6307655;22;20003;-80
2022/06/25 01:20:23;;;;;;;6.68;4.60;;;;;;;15.87;94.23;100844.91;6307284;22;20413;-80
2022/06/25 01:22:49;;;;;;;8.95;4.93;;;;;;;15.99;94.71;100870.72;6307761;22;19999;-84
2022/06/25 01:25:17;;;;;;;9.38;5.07;;;;;;;15.98;94.71;100876.91;6307986;22;20060;-85
2022/06/25 01:27:43;;;;;;;9.77;5.55;;;;;;;15.98;94.97;100870.88;6308099;22;20007;-85
2022/06/25 01:30:10;;;;;;;9.45;4.97;;;;;;;15.95;94.91;100881.56;6308184;22;20427;-82
2022/06/25 01:32:36;;;;;;;11.80;5.45;;;;;;;15.84;94.87;100881.63;6307243;22;20086;-81
2022/06/25 01:35:05;;;;;;;9.00;5.53;;;;;;;15.76;94.93;100859.66;6307597;22;20026;-84
2022/06/25 01:37:32;;;;;;;10.30;5.57;;;;;;;15.58;95.24;100840.34;6280310;22;20064;-84
2022/06/25 01:39:58;;;;;;;12.15;5.45;;;;;;;15.47;94.56;100820.44;6307935;22;20007;-84
2022/06/25 01:45:09;;;;;;;10.13;5.50;;;;;;;15.86;95.06;100900.56;6307490;22;20020;-85
2022/06/25 01:47:35;;;;;;;7.70;5.30;;;;;;;15.85;94.78;100912.75;6306996;22;20035;-84
2022/06/25 01:50:00;;;;;;;10.52;5.50;;;;;;;15.81;94.99;100905.31;6307301;22;20006;-84
2022/06/25 01:52:26;;;;;;;10.25;5.28;;;;;;;15.62;95.33;100870.41;6307164;22;20007;-85
2022/06/25 01:54:51;;;;;;;8.68;5.22;;;;;;;15.53;95.15;100873.72;6307443;22;20090;-84
2022/06/25 01:57:16;;;;;;;8.27;5.15;;;;;;;15.70;95.15;100912.25;6306989;22;20148;-86
2022/06/25 01:59:44;;;;;;;8.57;5.28;;;;;;;15.64;95.42;100904.97;6307254;22;20006;-86
2022/06/25 02:02:09;;;;;;;14.85;6.10;;;;;;;15.62;95.53;100912.03;6279589;22;20101;-86
2022/06/25 02:04:35;;;;;;;8.93;5.60;;;;;;;15.66;95.42;100928.25;6307415;22;20046;-85
2022/06/25 02:07:00;;;;;;;7.70;5.47;;;;;;;15.63;95.75;100923.28;6278934;22;20072;-85
2022/06/25 02:09:25;;;;;;;9.20;5.22;;;;;;;15.28;95.73;100877.53;6307419;22;20014;-85
2022/06/25 02:11:51;;;;;;;7.47;4.88;;;;;;;15.32;95.66;100891.94;6307202;22;20074;-84
2022/06/25 02:14:16;;;;;;;10.73;5.53;;;;;;;15.54;95.93;100931.84;6307121;22;19999;-85
2022/06/25 02:16:41;;;;;;;7.45;5.20;;;;;;;15.44;95.88;100913.56;6306670;22;20034;-85
2022/06/25 02:19:07;;;;;;;9.27;5.53;;;;;;;15.50;95.56;100934.69;6307053;22;20413;-85
2022/06/25 02:21:32;;;;;;;10.23;5.20;;;;;;;15.50;95.49;100939.06;6306888;22;20424;-85
2022/06/25 02:23:58;;;;;;;8.90;5.38;;;;;;;15.47;95.29;100934.94;6306801;22;20054;-86
2022/06/25 02:26:23;;;;;;;11.43;5.65;;;;;;;15.08;95.47;100876.56;6307121;22;20014;-86
2022/06/25 02:28:48;;;;;;;9.85;5.50;;;;;;;15.48;95.15;100944.41;6307174;22;20058;-86
2022/06/25 02:31:14;;;;;;;9.63;5.30;;;;;;;15.47;94.90;100950.56;6306985;22;19999;-85
2022/06/25 02:33:39;;;;;;;10.27;5.47;;;;;;;15.27;95.11;100924.50;6307157;22;19999;-85
2022/06/25 02:36:05;;;;;;;9.45;5.18;;;;;;;15.38;95.31;100953.06;6307126;22;20033;-84
2022/06/25 02:38:30;;;;;;;12.15;5.28;;;;;;;15.01;95.04;100898.81;6306891;22;20004;-86
2022/06/25 02:40:56;;;;;;;10.55;5.00;;;;;;;15.25;95.38;100947.22;6306353;22;20034;-85
2022/06/25 02:43:21;;;;;;;9.10;4.95;;;;;;;15.30;95.68;100965.88;6306565;22;20006;-85
2022/06/25 02:45:47;;;;;;;7.80;4.88;;;;;;;15.19;95.86;100956.34;6306706;22;20003;-84
2022/06/25 02:48:12;;;;;;;10.20;5.05;;;;;;;15.26;95.62;100964.47;6306819;22;20004;-82
2022/06/25 02:50:38;;;;;;;11.13;5.30;;;;;;;15.01;95.58;100931.78;6306370;22;20011;-86
2022/06/25 02:53:03;;;;;;;9.18;4.68;;;;;;;15.24;95.91;100974.16;6306705;22;20003;-85
2022/06/25 03:00:56;;;;;;;8.23;4.90;;;;;;;15.17;96.14;100969.47;6308906;22;20018;-85
2022/06/25 03:03:29;;;;;;;8.50;4.75;;;;;;;15.15;95.89;100968.78;6280651;22;20004;-84
2022/06/25 03:05:54;;;;;;;8.45;5.05;;;;;;;15.02;96.04;100965.47;6308845;22;20015;-86
2022/06/25 03:08:20;;;;;;;9.90;6.30;;;;;;;15.12;96.14;100979.41;6308937;22;20333;-86
2022/06/25 03:10:45;;;;;;;10.60;5.47;;;;;;;15.13;96.32;100977.63;6309075;22;20016;-85
2022/06/25 03:13:11;;;;;;;11.45;5.00;;;;;;;14.93;96.06;100945.41;6280957;22;20000;-86
2022/06/25 03:15:36;;;;;;;7.82;5.03;;;;;;;14.85;96.02;100934.81;6308434;22;19999;-86
2022/06/25 03:18:02;;;;;;;7.65;5.30;;;;;;;15.15;96.30;100986.16;6308650;22;20031;-86
2022/06/25 03:20:28;;;;;;;11.05;5.60;;;;;;;14.94;96.18;100952.25;6308419;22;20026;-84
2022/06/25 03:22:53;;;;;;;8.48;5.50;;;;;;;15.14;95.91;100987.06;6308501;22;20050;-81
2022/06/25 03:25:18;;;;;;;10.07;4.65;;;;;;;15.10;96.08;100988.28;6308564;22;20007;-81
2022/06/25 03:27:44;;;;;;;8.02;5.28;;;;;;;15.03;96.69;100976.69;6308181;22;20018;-83
2022/06/25 03:30:09;;;;;;;7.72;5.57;;;;;;;15.00;96.26;100980.38;6281143;22;20003;-81
2022/06/25 03:32:37;;;;;;;9.82;5.50;;;;;;;14.81;96.67;100951.56;6308193;22;20081;-85
2022/06/25 03:35:03;;;;;;;10.60;6.25;;;;;;;15.04;96.66;100992.19;6308398;22;19999;-84
2022/06/25 03:37:28;;;;;;;9.65;6.18;;;;;;;14.69;96.66;100939.53;6307983;22;20003;-84
2022/06/25 03:39:53;;;;;;;11.85;6.35;;;;;;;15.02;96.60;100991.47;6307905;22;20452;-84
2022/06/25 03:42:19;;;;;;;10.07;6.05;;;;;;;15.02;96.63;100988.06;6308081;22;19999;-84
2022/06/25 03:44:44;;;;;;;8.55;6.13;;;;;;;14.79;96.34;100932.69;6308211;22;20010;-86
2022/06/25 03:47:12;;;;;;;9.88;6.47;;;;;;;14.96;95.94;100952.16;6308277;22;19999;-84
2022/06/25 03:49:45;;;;;;;9.20;6.60;;;;;;;15.21;96.14;100991.69;6306128;22;20003;-83
2022/06/25 03:52:11;;;;;;;10.43;6.15;;;;;;;14.82;96.11;100919.44;6307811;22;20424;-82
2022/06/25 03:54:36;;;;;;;9.93;6.85;;;;;;;15.37;95.56;100996.50;6307821;22;20003;-83
2022/06/25 03:57:03;;;;;;;10.60;6.55;;;;;;;15.39;95.28;100978.16;6308223;22;20008;-80
2022/06/25 03:59:31;;;;;;;8.65;5.82;;;;;;;15.71;94.55;100996.38;6307927;22;20003;-86
2022/06/25 04:01:56;;;;;;;9.02;5.65;;;;;;;15.71;93.37;100973.78;6307923;22;20000;-84
2022/06/25 04:07:10;;;;;;;10.40;5.95;;;;;;;16.18;91.24;100994.22;6307443;22;20437;-83
2022/06/25 04:09:35;;;;;;;8.10;5.55;;;;;;;16.02;91.67;100953.81;6279696;22;20010;-83
2022/06/25 04:12:04;;;;;;;9.50;5.40;;;;;;;16.39;91.17;100995.03;6308112;22;20413;-84
2022/06/25 04:14:29;;;;;;;8.57;5.38;;;;;;;16.19;90.62;100946.38;6307977;22;20004;-81
2022/06/25 04:16:55;;;;;;;8.45;5.45;;;;;;;16.61;89.97;100996.63;6308057;22;20064;-83
2022/06/25 04:19:20;;;;;;;7.45;4.93;;;;;;;16.67;89.12;100997.88;6279729;22;20007;-84
2022/06/25 04:21:53;;;;;;;6.90;5.15;;;;;;;16.74;88.97;101004.25;6281028;22;20011;-80
2022/06/25 04:24:18;;;;;;;7.88;4.78;;;;;;;17.07;87.48;101003.94;6307744;22;20015;-83
2022/06/25 04:26:44;;;;;;;9.65;4.60;;;;;;;17.94;84.44;100998.78;6308006;22;20078;-85
2022/06/25 04:29:09;;;;;;;7.85;3.80;;;;;;;19.06;78.30;100976.03;6308139;22;20003;-86
2022/06/25 04:31:38;;;;;;;6.13;3.42;;;;;;;19.88;74.36;101008.25;6308141;22;20011;-87
2022/06/25 04:34:04;;;;;;;5.88;3.45;;;;;;;20.36;71.68;100991.19;6307533;22;20006;-86
2022/06/25 04:36:30;;;;;;;6.50;3.40;;;;;;;19.90;71.30;100972.22;6307484;22;19999;-84
2022/06/25 04:38:56;;;;;;;8.80;3.40;;;;;;;19.33;73.54;101003.16;6307432;22;20007;-86
2022/06/25 04:41:22;;;;;;;4.63;3.00;;;;;;;18.55;76.62;100992.28;6280109;22;20443;-86
2022/06/25 04:43:48;;;;;;;7.00;3.33;;;;;;;18.30;78.38;101025.94;6308051;22;20007;-84
2022/06/25 04:46:13;;;;;;;4.88;3.13;;;;;;;18.09;79.77;101006.16;6307431;22;20439;-83
2022/06/25 04:48:39;;;;;;;6.18;3.55;;;;;;;17.98;79.96;101010.59;6307528;22;20007;-84
2022/06/25 04:51:13;;;;;;;5.00;3.22;;;;;;;17.96;80.12;100999.44;6307534;22;20096;-84
2022/06/25 04:53:55;;;;;;;7.15;3.72;;;;;;;18.59;79.42;101023.25;6307849;22;20003;-82
2022/06/25 04:56:21;;;;;;;6.63;3.08;;;;;;;19.30;75.57;101034.88;6307275;22;20009;-84
2022/06/25 04:58:46;;;;;;;6.32;3.35;;;;;;;19.86;74.85;100994.44;6307615;22;19999;-85
2022/06/25 05:01:11;;;;;;;5.00;2.60;;;;;;;21.73;67.98;101024.13;6306898;22;19999;-81
2022/06/25 05:03:37;;;;;;;5.10;2.45;;;;;;;22.94;64.38;101016.94;6307880;22;20049;-85
2022/06/25 05:06:06;;;;;;;4.65;2.45;;;;;;;24.05;60.06;101029.66;6307310;22;20011;-83
2022/06/25 05:08:31;;;;;;;5.28;2.40;;;;;;;23.78;57.95;100991.50;6307507;22;20003;-79
2022/06/25 05:10:57;;;;;;;4.88;2.08;;;;;;;23.97;59.26;101035.00;6307633;22;20086;-78
2022/06/25 05:13:22;;;;;;;4.47;2.35;;;;;;;24.33;57.35;101031.72;6307777;22;19999;-80
2022/06/25 05:15:47;;;;;;;4.95;2.30;;;;;;;23.71;58.80;101044.16;6307785;22;20061;-79
2022/06/25 05:18:13;;;;;;;6.03;2.58;;;;;;;22.71;61.27;101027.38;6307565;22;20007;-78
2022/06/25 05:20:40;;;;;;;6.65;2.50;;;;;;;21.97;64.21;101049.56;6306844;22;20084;-79
2022/06/25 05:23:06;;;;;;;5.25;2.28;;;;;;;21.23;66.01;101019.72;6307495;22;20003;-79
2022/06/25 05:26:18;;;;;;;4.47;2.47;;;;;;;21.17;67.68;101049.28;6258623;22;20442;-80
2022/06/25 05:45:23;;;;;;;5.25;2.60;;;;;;;25.21;51.07;100894.19;6245343;23;20008;-78
2022/06/25 05:48:19;;;;;;;4.75;2.35;;;;;;;26.49;49.91;100989.13;6245327;23;20011;-77
2022/06/25 05:51:00;;;;;;;4.80;2.33;;;;;;;26.79;49.56;101005.53;6245505;23;20004;-79
2022/06/25 05:56:28;;;;;;;4.60;2.20;;;;;;;24.87;51.57;101019.84;6245149;23;20325;-79
2022/06/25 05:59:09;;;;;;;4.55;2.50;;;;;;;23.45;54.32;100901.31;6245238;23;20004;-79
2022/06/25 06:01:46;;;;;;;;;;;;;;;24.51;54.75;101082.34;6245882;23;20004;-79
2022/06/25 06:04:23;;;;;;;8.93;2.50;;;;;;;22.61;57.61;100900.41;6245331;23;19912;-78
2022/06/25 06:06:52;;;;;;;5.85;2.25;;;;;;;23.49;55.84;100994.84;6245224;23;20007;-78
2022/06/25 06:09:32;;;;;;;6.35;2.63;;;;;;;23.22;55.87;100918.97;6245894;22;20317;-78
2022/06/25 06:11:58;;;;;;;3.63;2.30;;;;;;;24.18;56.86;101090.53;6245692;23;20004;-78
2022/06/25 06:14:41;;;;;;;4.60;2.30;;;;;;;23.51;55.79;100990.25;6245532;23;20027;-77
2022/06/25 06:17:06;;;;;;;4.50;2.50;;;;;;;23.73;54.61;100975.41;6245013;23;20103;-77
2022/06/25 06:19:37;;;;;;;6.35;2.47;;;;;;;24.13;56.18;101095.56;6245504;23;20038;-78
2022/06/25 06:22:03;;;;;;;5.63;2.45;;;;;;;23.92;56.19;101098.06;6245113;23;20005;-79
2022/06/25 06:24:28;;;;;;;4.72;2.53;;;;;;;23.79;56.09;101074.06;6245563;23;20131;-78
2022/06/25 06:26:54;;;;;;;3.97;2.50;;;;;;;24.07;56.33;101096.25;6245017;22;20039;-78
2022/06/25 06:29:19;;;;;;;4.20;2.33;;;;;;;24.19;56.14;101100.13;6244082;23;20039;-77
2022/06/25 06:31:44;;;;;;;3.80;2.28;;;;;;;24.57;54.27;101082.44;6244852;23;20083;-77
2022/06/25 06:34:10;;;;;;;4.88;2.42;;;;;;;25.20;53.07;101076.75;6245028;23;20472;-75
2022/06/25 06:36:35;;;;;;;5.07;2.53;;;;;;;25.49;52.29;101087.25;6244843;23;20004;-79
2022/06/25 06:39:01;;;;;;;5.50;2.90;;;;;;;25.02;51.46;101093.00;6245171;23;20000;-77
2022/06/25 06:41:27;;;;;;;5.03;2.67;;;;;;;24.47;52.91;101075.78;6245355;23;20058;-74
2022/06/25 06:43:53;;;;;;;8.52;2.72;;;;;;;24.22;54.74;101110.31;6248420;22;20010;-76
2022/06/25 06:46:19;;;;;;;6.88;2.67;;;;;;;24.56;54.31;101109.03;6275798;22;20004;-77
2022/06/25 06:48:44;;;;;;;5.38;2.63;;;;;;;24.87;53.60;101112.28;6275701;22;20066;-76
2022/06/25 06:51:10;;;;;;;6.95;2.63;;;;;;;24.51;53.73;101087.63;6275396;22;20030;-77
2022/06/25 06:53:35;;;;;;;8.40;2.72;;;;;;;24.47;54.17;101107.47;6275559;22;20004;-78
2022/06/25 06:56:00;;;;;;;6.72;2.90;;;;;;;23.85;55.11;101086.56;6248526;22;20027;-80
2022/06/25 06:58:27;;;;;;;6.50;2.70;;;;;;;23.75;57.43;101115.81;6275619;22;20011;-77
2022/06/25 07:00:52;;;;;;;5.00;2.72;;;;;;;23.92;57.21;101113.88;6275089;22;20425;-77
2022/06/25 07:03:17;;;;;;;6.70;2.65;;;;;;;24.76;55.09;101102.19;6275659;22;20047;-79
2022/06/25 07:05:43;;;;;;;5.57;2.50;;;;;;;26.70;50.68;101095.97;6275671;22;20042;-76
2022/06/25 07:08:08;;;;;;;7.00;2.83;;;;;;;27.51;47.23;101096.91;6275446;22;20053;-76
2022/06/25 07:10:33;;;;;;;5.40;2.65;;;;;;;28.53;45.42;101111.69;6275509;22;20000;-78
2022/06/25 07:12:58;;;;;;;6.60;2.42;;;;;;;29.49;42.21;101082.47;6275853;22;20325;-77
2022/06/25 07:15:24;;;;;;;4.90;2.40;;;;;;;30.03;41.18;101112.19;6275444;22;19995;-77
2022/06/25 07:17:49;;;;;;;4.75;2.25;;;;;;;30.23;40.24;101096.84;6275354;22;20007;-77
2022/06/25 07:20:14;;;;;;;6.68;2.45;;;;;;;31.18;39.18;101107.91;6275937;22;20011;-80
2022/06/25 07:22:40;;;;;;;3.80;2.20;;;;;;;31.49;37.81;101104.22;6275503;22;20000;-80
2022/06/25 07:25:05;;;;;;;4.97;2.22;;;;;;;31.59;37.28;101087.63;6275257;22;20008;-81
2022/06/25 07:27:32;;;;;;;6.13;2.20;;;;;;;30.71;39.09;101112.19;6275920;22;20026;-83
2022/06/25 07:29:57;;;;;;;6.78;2.08;;;;;;;30.46;39.10;101105.00;6275323;22;20027;-84
2022/06/25 07:32:22;;;;;;;5.28;2.30;;;;;;;30.37;39.65;101106.34;6275567;22;20030;-81
2022/06/25 07:34:48;;;;;;;6.13;2.20;;;;;;;31.01;38.38;101102.38;6276046;22;19999;-81
2022/06/25 07:37:13;;;;;;;5.75;2.58;;;;;;;30.13;39.73;101076.03;6275315;22;20076;-81
2022/06/25 07:39:39;;;;;;;5.18;2.00;;;;;;;29.64;41.02;101096.28;6248223;22;19996;-80
2022/06/25 07:42:04;;;;;;;3.50;1.70;;;;;;;29.89;39.74;101103.47;6275614;22;20000;-81
2022/06/25 07:44:29;;;;;;;4.70;2.10;;;;;;;29.49;41.47;101087.78;6276058;22;20007;-81
2022/06/25 07:46:55;;;;;;;4.68;1.80;;;;;;;28.40;43.08;101072.66;6277584;22;20057;-81
2022/06/25 07:49:20;;;;;;;5.10;2.10;;;;;;;27.79;44.66;101115.34;6276027;22;20008;-81
2022/06/25 07:51:59;;;;;;;5.30;2.00;;;;;;;26.76;47.89;101127.00;6277237;22;19999;-81
2022/06/25 07:54:28;;;;;;;5.07;2.33;;;;;;;25.79;49.74;101105.69;6277063;22;20418;-81
2022/06/25 07:56:53;;;;;;;5.03;2.22;;;;;;;24.92;52.04;101081.88;6277206;22;20064;-80
2022/06/25 07:59:19;;;;;;;5.38;2.25;;;;;;;24.97;52.30;101125.22;6277283;22;19999;-81
2022/06/25 08:01:44;;;;;;;6.40;2.45;;;;;;;24.85;54.22;101121.41;6277239;22;20004;-81
2022/06/25 08:04:10;;;;;;;4.05;2.53;;;;;;;24.36;52.30;101068.31;6276826;22;20000;-81
2022/06/25 08:06:38;;;;;;;5.93;2.40;;;;;;;24.29;54.63;101097.25;6277233;22;20000;-82
2022/06/25 08:09:04;;;;;;;4.05;2.30;;;;;;;24.11;56.37;101118.66;6276716;22;20429;-81
2022/06/25 08:11:30;;;;;;;7.60;2.88;;;;;;;23.30;57.17;101077.00;6277396;22;20006;-81
2022/06/25 08:13:56;;;;;;;5.93;2.50;;;;;;;23.24;58.22;101125.13;6277227;22;20000;-81
2022/06/25 08:16:22;;;;;;;5.60;2.92;;;;;;;22.96;60.62;101122.94;6277336;22;20007;-80
2022/06/25 08:18:47;;;;;;;5.95;2.55;;;;;;;22.81;60.65;101125.44;6277313;22;20000;-79
2022/06/25 08:21:15;;;;;;;4.70;2.25;;;;;;;22.61;60.83;101111.84;6277279;22;20490;-80
2022/06/25 08:23:40;;;;;;;9.05;2.53;;;;;;;22.53;61.11;101129.44;6277164;22;20003;-79
2022/06/25 08:26:06;;;;;;;5.93;2.30;;;;;;;22.57;61.07;101117.59;6276855;22;20387;-79
2022/06/25 08:28:31;;;;;;;6.97;2.55;;;;;;;22.53;61.17;101097.88;6276779;22;20011;-81
2022/06/25 08:30:57;;;;;;;3.85;2.03;;;;;;;22.72;61.71;101129.09;6277045;22;20006;-80
2022/06/25 08:33:22;;;;;;;9.52;2.45;;;;;;;22.73;61.34;101133.34;6277189;22;20004;-79
2022/06/25 08:35:48;;;;;;;3.33;1.90;;;;;;;22.65;60.90;101140.44;6276542;22;20446;-79
2022/06/25 08:38:13;;;;;;;5.07;1.80;;;;;;;22.60;61.40;101133.03;6276536;22;20406;-80
2022/06/25 08:40:41;;;;;;;5.88;2.20;;;;;;;22.33;61.44;101129.81;6276874;22;19999;-80
2022/06/25 08:43:07;;;;;;;7.68;2.33;;;;;;;22.00;61.96;101118.41;6276944;22;20074;-81
2022/06/25 08:45:33;;;;;;;4.72;2.28;;;;;;;21.91;61.94;101145.69;6277203;22;20094;-80
2022/06/25 08:48:00;;;;;;;10.50;2.30;;;;;;;21.85;62.62;101141.09;6276089;22;20066;-79
2022/06/25 08:50:26;;;;;;;4.63;2.08;;;;;;;21.74;63.81;101115.13;6276687;22;20027;-81
2022/06/25 08:52:53;;;;;;;4.35;1.83;;;;;;;21.91;63.54;101139.59;6277005;22;20030;-81
2022/06/25 08:55:30;;;;;;;5.60;2.00;;;;;;;21.94;63.33;101118.28;6276777;22;19996;-82
2022/06/25 08:57:56;;;;;;;4.35;2.10;;;;;;;22.29;63.10;101103.97;6276500;22;20004;-80
2022/06/25 09:00:22;;;;;;;6.28;2.10;;;;;;;22.95;61.75;101118.66;6276922;22;20008;-81
2022/06/25 09:02:47;;;;;;;2.92;1.88;;;;;;;23.67;60.58;101136.94;6276630;22;20035;-80
2022/06/25 09:05:13;;;;;;;5.38;2.45;;;;;;;23.79;58.24;101146.09;6276030;22;20238;-82
2022/06/25 09:07:51;;;;;;;6.22;2.22;;;;;;;23.87;57.88;101148.69;6276410;22;20046;-83
2022/06/25 09:10:21;;;;;;;3.72;2.08;;;;;;;24.00;57.66;101146.28;6276258;22;20057;-80
2022/06/25 09:12:54;;;;;;;5.27;2.27;;;;;;;23.94;58.48;101117.16;6276384;22;20061;-80
2022/06/25 09:15:28;;;;;;;5.30;2.78;;;;;;;24.24;56.94;101145.25;6276455;22;20680;-81
2022/06/25 09:17:53;;;;;;;4.68;1.90;;;;;;;24.53;56.16;101147.19;6276261;22;20008;-83
2022/06/25 09:20:22;;;;;;;5.53;2.40;;;;;;;24.63;55.66;101146.91;6247951;22;20076;-81
2022/06/25 09:23:00;;;;;;;4.68;1.90;;;;;;;24.51;56.19;101129.88;6276588;22;20129;-81
2022/06/25 09:25:28;;;;;;;4.70;2.05;;;;;;;24.28;55.73;101146.53;6275805;22;20008;-83
2022/06/25 09:27:54;;;;;;;4.43;2.10;;;;;;;23.90;56.98;101137.81;6276189;22;20007;-83
2022/06/25 09:30:21;;;;;;;5.70;2.30;;;;;;;23.77;57.30;101148.09;6276608;22;20003;-83
2022/06/25 09:32:48;;;;;;;6.32;2.53;;;;;;;23.40;58.28;101144.34;6275914;22;20417;-82
2022/06/25 09:35:41;;;;;;;5.28;2.22;;;;;;;22.88;59.55;101094.00;6276431;22;20003;-84
2022/06/25 09:38:14;;;;;;;3.65;2.20;;;;;;;22.69;60.51;101100.44;6248747;22;20331;-80
2022/06/25 09:41:00;;;;;;;4.60;1.90;;;;;;;23.16;61.55;101134.72;6275412;22;20004;-81
2022/06/25 09:43:35;;;;;;;4.20;1.95;;;;;;;23.40;60.52;101135.59;6276315;22;20022;-80
2022/06/25 09:46:07;;;;;;;3.95;1.90;;;;;;;23.33;60.45;101142.56;6276442;22;20081;-80
2022/06/25 09:48:41;;;;;;;6.43;1.55;;;;;;;23.34;59.72;101137.09;6276043;22;20003;-81
2022/06/25 09:51:11;;;;;;;4.00;1.60;;;;;;;23.61;59.08;101137.66;6276292;22;20012;-82
2022/06/25 09:53:47;;;;;;;2.75;1.48;;;;;;;24.13;57.89;101144.88;6276291;22;20061;-82
2022/06/25 09:56:19;;;;;;;5.90;1.60;;;;;;;24.58;57.54;101147.47;6275928;22;20007;-84
2022/06/25 09:58:46;;;;;;;6.55;1.83;;;;;;;24.65;55.29;101107.94;6275958;22;20331;-84
2022/06/25 10:01:16;;;;;;;5.90;1.60;;;;;;;25.13;55.13;101151.50;6276121;22;20326;-81
2022/06/25 10:03:48;;;;;;;3.70;1.63;;;;;;;25.26;52.81;101147.38;6275863;22;20417;-81
2022/06/25 10:06:19;;;;;;;4.65;1.60;;;;;;;24.98;54.16;101115.50;6248768;22;20004;-80
2022/06/25 10:08:53;;;;;;;3.65;1.60;;;;;;;24.89;53.92;101147.31;6275473;22;20443;-80
2022/06/25 10:11:20;;;;;;;11.18;2.80;;;;;;;25.12;54.29;101139.28;6275462;22;20003;-82
2022/06/25 10:13:48;;;;;;;4.45;1.80;;;;;;;25.14;53.23;101115.31;6275745;22;20039;-79
2022/06/25 10:16:16;;;;;;;2.55;1.58;;;;;;;25.49;53.33;101141.97;6275861;22;19996;-80
2022/06/25 10:18:43;;;;;;;6.93;2.03;;;;;;;25.41;52.93;101143.72;6275888;22;20048;-80
2022/06/25 10:21:09;;;;;;;3.80;1.45;;;;;;;25.41;53.37;101141.06;6276073;22;19999;-80
2022/06/25 10:23:36;;;;;;;8.63;1.80;;;;;;;25.33;53.99;101125.31;6275847;22;20004;-79
2022/06/25 10:26:02;;;;;;;3.90;1.52;;;;;;;25.38;53.77;101136.16;6294878;22;20011;-80
2022/06/25 10:28:31;;;;;;;3.97;1.50;;;;;;;25.38;53.28;101140.63;6278337;22;20018;-80
2022/06/25 10:30:57;;;;;;;6.30;2.35;;;;;;;25.33;52.99;101111.28;6278318;22;20007;-81
2022/06/25 10:33:26;;;;;;;5.40;1.60;;;;;;;25.76;54.56;101135.13;6279668;22;20015;-80
2022/06/25 10:35:54;;;;;;;3.30;1.60;;;;;;;25.78;53.54;101133.97;6306954;22;20421;-80
2022/06/25 10:38:22;;;;;;;3.70;1.55;;;;;;;25.37;52.98;101104.63;6306854;22;20495;-80
2022/06/25 10:40:57;;;;;;;4.25;1.70;;;;;;;25.46;52.77;101137.84;6306510;22;20006;-80
2022/06/25 10:43:45;;;;;;;4.55;1.88;;;;;;;25.54;53.95;101136.91;6307218;22;20014;-90
2022/06/25 10:46:36;;;;;;;6.10;1.70;;;;;;;25.57;53.13;101133.91;6309390;22;20034;-91
2022/06/25 10:49:10;;;;;;;4.55;2.03;;;;;;;25.69;52.82;101127.13;6307232;22;20033;-87
2022/06/25 10:51:49;;;;;;;5.65;1.80;;;;;;;25.84;51.87;101137.66;6307236;22;20026;-92
2022/06/25 10:54:36;;;;;;;3.20;1.50;;;;;;;26.35;51.38;101130.38;6306915;22;20078;-77
2022/06/25 10:57:04;;;;;;;4.90;1.50;;;;;;;26.30;49.40;101133.59;6306427;22;20068;-93
2022/06/25 10:59:35;;;;;;;2.17;1.20;;;;;;;26.20;50.39;101134.94;6306547;22;20416;-93
2022/06/25 11:02:03;;;;;;;3.28;1.38;;;;;;;25.96;49.60;101122.94;6306822;22;20003;-92
2022/06/25 11:04:30;;;;;;;3.10;1.52;;;;;;;25.70;50.27;101095.22;6306956;22;20010;-92
2022/06/25 11:07:10;;;;;;;3.47;1.73;;;;;;;26.06;50.44;101112.84;6306805;22;20000;-92
2022/06/25 11:09:37;;;;;;;4.43;1.30;;;;;;;25.98;50.30;101127.03;6306885;22;20007;-92
2022/06/25 11:12:03;;;;;;;3.92;1.20;;;;;;;26.04;49.44;101112.19;6306568;22;20056;-91
2022/06/25 11:14:28;;;;;;;5.53;1.40;;;;;;;26.28;49.34;101109.16;6306711;22;20007;-90
2022/06/25 11:16:55;;;;;;;4.10;1.10;;;;;;;26.11;48.10;101091.09;6306614;22;19999;-91
2022/06/25 11:19:22;;;;;;;2.65;1.30;;;;;;;26.15;49.32;101111.66;6306871;22;20040;-93
2022/06/25 11:21:48;;;;;;;3.50;1.13;;;;;;;26.21;49.01;101112.75;6308797;22;20361;-87
2022/06/25 11:24:20;;;;;;;4.57;1.23;;;;;;;26.37;50.00;101087.81;6308328;22;20022;-91
2022/06/25 11:29:38;;;;;;;1.92;1.00;;;;;;;26.80;46.31;101102.56;6308423;22;20337;-92
2022/06/25 11:32:04;;;;;;;2.30;0.98;;;;;;;26.76;46.43;101121.72;6308647;22;19995;-89
2022/06/25 11:34:30;;;;;;;1.73;0.93;;;;;;;26.48;48.41;101100.53;6281691;22;20069;-91
2022/06/25 11:37:05;;;;;;;3.50;1.25;;;;;;;26.39;49.86;101099.88;6308590;22;20413;-89
2022/06/25 11:39:31;;;;;;;2.03;1.00;;;;;;;26.07;49.78;101085.38;6308623;22;20429;-81
2022/06/25 11:42:00;;;;;;;2.47;1.17;;;;;;;26.06;47.76;101109.38;6308583;22;20044;-83
2022/06/25 11:44:26;;;;;;;2.75;0.90;;;;;;;26.17;49.77;101124.75;6308542;22;20003;-83
2022/06/25 11:46:53;;;;;;;1.88;1.05;;;;;;;26.11;47.49;101134.25;6308654;22;20086;-83
2022/06/25 11:49:22;;;;;;;1.70;0.95;;;;;;;26.32;48.38;101125.44;6308266;22;20333;-82
2022/06/25 11:51:50;;;;;;;1.95;0.80;;;;;;;26.58;48.12;101119.56;6306418;22;20003;-84
2022/06/25 11:54:19;;;;;;;2.55;1.00;;;;;;;26.48;46.85;101132.31;6281109;22;19995;-87
2022/06/25 11:56:52;;;;;;;3.60;1.00;;;;;;;26.38;48.82;101130.03;6307986;22;20007;-85
2022/06/25 11:59:30;;;;;;;2.30;1.00;;;;;;;26.45;48.28;101124.75;6281080;22;20014;-85
2022/06/25 12:01:59;;;;;;;2.45;1.05;;;;;;;26.54;47.31;101131.53;6281420;22;20014;-84
2022/06/25 12:04:58;;;;;;;1.65;0.90;;;;;;;27.02;46.16;101126.31;6280728;22;20010;-85
2022/06/25 12:52:26;;;;;;;;;;;;;;;;;;;;;